• Join FlightAware (Why Join?)
  • Login
  • US Flag 
10:13AM EDT


 

Airport Tracker/Info


-or-


 

Live Flight TrackerFlight Track Log ✈ HPN8 ✈ 27-Jun-2013 ✈ CYOO - KBED

Flight Track Log - Related Links

Times and Time Zones

All times are in EDT time to prevent confusion due to time zone crossing. See the HPN8 flight status page for this flight to view local times or setup timezone preferences in your user account.

Time Position Orientation Groundspeed Altitude Reporting Facility
EDT Latitude Longitude Course Direction KTS MPH feet Rate Location/Type
08:22PM 43.9367 -78.9489 157° South 368 423 1,600  Level Cleveland Center
08:23PM 43.9375 -79.0239 271° West 279 321 3,600 1,680 Climbing Cleveland Center
08:24PM 43.8833 -79.0167 175° South 150 173 5,000 1,140 Climbing Cleveland Center
08:25PM 43.8164 -79.0069 174° South 204 235 5,900 1,620 Climbing Cleveland Center
08:26PM 43.4123 -78.5901 157° South  Level FlightAware Approximate
08:26PM 43.7500 -78.9667 156° South 240 276 7,900  Level Toronto Center
08:27PM 43.3281 -78.5410 157° South  Level FlightAware Approximate
08:27PM 43.6833 -78.9667 180° South 230 265 9,000  Level Toronto Center
08:28PM 43.2438 -78.4921 157° South  Level FlightAware Approximate
08:28PM 43.6167 -78.9500 170° South 250 288 10,800  Level Toronto Center
08:29PM 43.5833 -78.9000 133° Southeast 210 242 12,700 1,620 Climbing Toronto Center
08:30PM 43.5500 -78.8333 125° Southeast 210 242 14,100 1,380 Climbing Toronto Center
08:31PM 43.5500 -78.7333 90° East 210 242 15,500 1,320 Climbing Toronto Center
08:32PM 43.5333 -78.6667 109° East 220 253 16,800 1,200 Climbing Toronto Center
08:33PM 43.5167 -78.5833 105° East 220 253 18,000 1,200 Climbing Toronto Center
08:34PM 43.4833 -78.4833 115° Southeast 230 265 19,200 1,080 Climbing Toronto Center
08:35PM 43.4833 -78.4000 90° East 230 265 20,200 900 Climbing Toronto Center
08:36PM 43.4842 -78.3117 89° East 234 269 21,300 840 Climbing Cleveland Center
08:37PM 43.4717 -78.2147 100° East 241 277 22,200 960 Climbing Cleveland Center
08:38PM 43.4572 -78.1208 102° East 246 283 23,300 960 Climbing Cleveland Center
08:39PM 43.4428 -78.0272 102° East 246 283 24,200 960 Climbing Cleveland Center
08:40PM 43.4303 -77.9306 100° East 252 290 25,300 720 Climbing Cleveland Center
08:43PM 43.4178 -77.7855 97° East  Level FlightAware Approximate
08:43PM 43.3833 -77.6167 97° East 280 322 27,000  Level Toronto Center
08:44PM 43.3653 -77.5019 102° East 297 342 27,000  Level Cleveland Center
08:45PM 43.3475 -77.3772 101° East 318 366 27,100 480 Climbing Cleveland Center
08:46PM 43.3297 -77.2611 102° East 323 372 28,000 900 Climbing Cleveland Center
08:49PM 43.2936 -77.0364 102° East 305 351 29,900 840 Climbing Boston Center
08:49PM 43.2667 -76.9333 110° East 280 322 30,400 720 Climbing Toronto Center
08:50PM 43.2667 -76.8167 90° East 280 322 31,200 660 Climbing Toronto Center
08:51PM 43.2500 -76.7333 105° East 280 322 31,800 540 Climbing Toronto Center
08:52PM 43.2167 -76.6167 111° Southeast 280 322 32,300 540 Climbing Toronto Center
08:53PM 43.2000 -76.5167 103° East 280 322 32,900 300 Climbing Toronto Center
08:54PM 43.1833 -76.4167 103° East 290 334 33,000  Climbing Toronto Center
08:56PM 43.1772 -76.2928 94° East 293 337 33,000  Level Boston Center
08:57PM 43.1583 -76.1747 102° East 304 350 33,000  Level Boston Center
08:58PM 43.1394 -76.0514 102° East 314 361 33,000  Level Boston Center
08:59PM 43.1200 -75.9392 103° East 329 379 33,000  Level Boston Center
09:00PM 43.1008 -75.8128 102° East 329 379 33,000  Level Boston Center
09:01PM 43.0794 -75.6894 103° East 334 384 33,000  Level Boston Center
09:02PM 43.0578 -75.5633 103° East 339 390 33,000 -120 Level Boston Center
09:03PM 43.0342 -75.4342 104° East 339 390 32,800 -780 Descending Boston Center
09:04PM 43.0106 -75.2967 103° East 350 403 31,300 -1,380 Descending Boston Center
09:05PM 42.9817 -75.1222 103° East 377 434 29,800 -1,200 Descending Boston Center
09:06PM 42.9558 -74.9764 104° East 388 447 28,900 -480 Descending Boston Center
09:07PM 42.9336 -74.8394 102° East 381 438 28,900  Level Boston Center
09:08PM 42.9094 -74.7050 104° East 370 426 29,000  Climbing Boston Center
09:09PM 42.8847 -74.5711 104° East 364 419 29,000  Level Boston Center
09:10PM 42.8622 -74.4428 103° East 357 411 29,000  Level Boston Center
09:11PM 42.8372 -74.3117 105° East 357 411 29,000  Level Boston Center
09:12PM 42.8164 -74.1836 102° East 352 405 29,000  Level Boston Center
09:13PM 42.7889 -74.0611 107° East 352 405 29,000  Level Boston Center
09:14PM 42.7700 -73.9306 101° East 347 399 29,000 -540 Level Boston Center
09:15PM 42.7403 -73.8000 107° East 347 399 28,000 -1,200 Descending Boston Center
09:16PM 42.7294 -73.6583 96° East 357 411 26,600 -1,500 Descending Boston Center
09:17PM 42.7142 -73.5083 98° East 382 440 25,000 -1,320 Descending Boston Center
09:18PM 42.6989 -73.3553 98° East 397 457 24,000 -540 Descending Boston Center
09:19PM 42.6853 -73.2167 98° East 391 450 24,000  Level Boston Center
09:20PM 42.6694 -73.0867 99° East 365 420 24,000  Level Boston Center
09:21PM 42.6514 -72.9314 99° East 366 421 24,000 -60 Level Boston Center
09:22PM 42.6375 -72.8014 98° East 361 415 23,900 -900 Descending Boston Center
09:23PM 42.6147 -72.7025 107° East 349 402 22,300 -1,800 Descending Boston Center
09:24PM 42.5858 -72.5922 110° East 327 376 20,300 -2,040 Descending Boston Center
09:25PM 42.5567 -72.4625 107° East 303 349 18,300 -2,160 Descending Boston Center
09:26PM 42.5503 -72.3386 94° East 310 357 16,000 -2,340 Descending Boston Center
09:27PM 42.5397 -72.2147 97° East 329 379 13,700 -2,100 Descending Boston Center
09:28PM 42.5353 -72.1047 93° East 329 379 11,800 -2,160 Descending Boston Center
09:29PM 42.5267 -71.9808 95° East 314 361 9,400 -1,980 Descending Boston Center
09:30PM 42.5219 -71.8908 94° East 283 326 7,900 -1,800 Descending Boston Center
09:31PM 42.5153 -71.7781 95° East 272 313 5,900 -1,920 Descending Boston Center
09:32PM 42.5083 -71.6939 96° East 260 299 4,200 -1,020 Descending Boston Center
09:33PM 42.5017 -71.6094 96° East 219 252 3,900 -540 Descending Boston Center
09:34PM 42.4947 -71.5389 98° East 192 221 3,200 -960 Descending Boston Center
09:35PM 42.4881 -71.4689 97° East 192 221 2,000 -720 Descending Boston Center
09:35PM 42.4833 -71.4333 100° East 160 184 2,000 -360 Level KA90
09:36PM 42.4833 -71.3833 90° East 96 110 1,500 -600 Descending KA90
09:37PM 42.4833 -71.3500 90° East 99 114 900 1,260 Descending KA90
09:40PM 42.4672 -71.2719 106° East 97 112 6,000 1,500 Climbing Boston Center
09:41PM 42.4608 -71.2383 104° East 97 112 6,000  Level Boston Center
09:42PM 42.4561 -71.2019 100° East 97 112 6,000  Level Boston Center
09:43PM 42.4517 -71.1739 102° East 97 112 6,000  Level Boston Center
09:45PM 42.4667 -71.2833 281° West  Level FlightAware Approximate
09:52PM 42.4699 -71.2890 281° West  Level Estimated
09:53PM 42.4667 -71.2833 281° West  Level FlightAware Approximate
09:54PM 42.4699 -71.2890 281° West  Level Estimated
09:55PM 42.4667 -71.2833 281° West  Level FlightAware Approximate